Time;durP1;ratioP1;P1;durP2;ratioP2;P2;SDS_P1;SDS_P2;PMS_P1;PMS_P2;Temp;Humidity;BMP_temperature;BMP_pressure;BME280_temperature;BME280_humidity;BME280_pressure;Samples;Min_cycle;Max_cycle;Signal;HPM_P1;HPM_P2
2023/09/10 00:01:11;;;;;;;24.95;9.73;;;;;;;11.46;99.68;100009.59;5100376;27;20034;-70
2023/09/10 00:03:37;;;;;;;15.25;9.43;;;;;;;11.46;100.00;99989.09;5118566;27;20057;-71
2023/09/10 00:06:07;;;;;;;18.60;9.77;;;;;;;11.45;100.00;99986.53;5098389;27;20039;-71
2023/09/10 00:08:34;;;;;;;18.60;10.05;;;;;;;11.40;100.00;99992.16;5097577;27;20046;-72
2023/09/10 00:11:00;;;;;;;17.92;9.82;;;;;;;11.41;100.00;99985.88;5117283;27;20039;-69
2023/09/10 00:13:26;;;;;;;14.70;8.75;;;;;;;11.39;100.00;99982.47;5094686;27;20054;-70
2023/09/10 00:15:52;;;;;;;12.50;8.73;;;;;;;11.34;100.00;99973.91;5115336;27;20039;-71
2023/09/10 00:18:18;;;;;;;12.68;8.85;;;;;;;11.34;100.00;99989.94;5114684;27;20065;-72
2023/09/10 00:20:43;;;;;;;19.00;9.40;;;;;;;11.33;100.00;99992.72;5100078;27;20527;-71
2023/09/10 00:23:08;;;;;;;12.77;8.80;;;;;;;11.34;100.00;99984.59;5116810;27;20035;-70
2023/09/10 00:25:34;;;;;;;13.60;8.57;;;;;;;11.34;100.00;100005.09;5098818;27;20043;-69
2023/09/10 00:27:59;;;;;;;14.07;8.10;;;;;;;11.32;100.00;99980.31;5120437;27;20046;-71
2023/09/10 00:30:26;;;;;;;16.92;8.77;;;;;;;11.30;100.00;99977.75;5098241;27;20520;-72
2023/09/10 00:32:51;;;;;;;12.73;8.25;;;;;;;11.27;100.00;99978.00;5079559;27;20051;-71
2023/09/10 00:35:17;;;;;;;15.93;9.05;;;;;;;11.26;100.00;99993.16;5101823;27;20534;-70
2023/09/10 00:37:42;;;;;;;14.45;8.18;;;;;;;11.24;100.00;99996.88;5101254;27;20437;-69
2023/09/10 00:40:08;;;;;;;12.45;8.10;;;;;;;11.21;100.00;100002.41;5120413;27;20042;-71
2023/09/10 00:42:34;;;;;;;15.60;9.70;;;;;;;11.19;100.00;99999.84;5101935;27;20043;-72
2023/09/10 00:45:00;;;;;;;16.65;10.32;;;;;;;11.18;100.00;99990.13;5101830;27;20108;-71
2023/09/10 00:47:26;;;;;;;16.50;10.65;;;;;;;11.14;100.00;99991.31;5102084;27;20042;-71
2023/09/10 00:49:53;;;;;;;18.02;10.82;;;;;;;11.12;100.00;99985.22;5120021;27;20047;-71
2023/09/10 00:52:19;;;;;;;17.40;9.98;;;;;;;11.10;100.00;99995.13;5099152;27;20043;-72
2023/09/10 00:54:44;;;;;;;19.00;11.23;;;;;;;11.10;100.00;100003.13;5116665;27;20481;-73
2023/09/10 00:57:10;;;;;;;15.50;10.20;;;;;;;11.08;100.00;100030.88;5119540;27;20035;-75
2023/09/10 00:59:35;;;;;;;14.15;11.18;;;;;;;11.06;100.00;100004.28;5100238;27;20038;-73
2023/09/10 01:02:02;;;;;;;14.93;9.02;;;;;;;11.03;100.00;100022.34;5093839;27;20047;-72
2023/09/10 01:04:28;;;;;;;17.13;9.85;;;;;;;11.02;100.00;100000.16;5111994;27;20527;-73
2023/09/10 01:06:53;;;;;;;17.38;9.02;;;;;;;11.02;100.00;99996.63;5099719;27;20050;-71
2023/09/10 01:09:19;;;;;;;18.25;9.88;;;;;;;11.01;100.00;100019.78;5096774;27;20035;-73
2023/09/10 01:11:57;;;;;;;22.67;10.05;;;;;;;11.08;100.00;99998.84;5100075;27;20039;-73
2023/09/10 01:14:48;;;;;;;12.63;9.13;;;;;;;11.09;100.00;99993.44;5098977;27;20061;-73
2023/09/10 01:17:34;;;;;;;15.90;8.82;;;;;;;11.15;100.00;99997.50;5118999;27;20489;-75
2023/09/10 01:20:13;;;;;;;16.05;8.60;;;;;;;11.21;100.00;99992.59;5089841;27;20509;-71
2023/09/10 01:22:57;;;;;;;14.80;8.57;;;;;;;11.24;100.00;99995.06;5061809;27;20038;-74
2023/09/10 01:25:22;;;;;;;13.45;8.80;;;;;;;11.20;100.00;100004.22;5117168;27;20031;-72
2023/09/10 01:27:47;;;;;;;13.98;8.60;;;;;;;11.25;100.00;99993.25;5081802;27;20113;-73
2023/09/10 01:30:13;;;;;;;13.05;8.80;;;;;;;11.28;100.00;100022.41;5114505;27;20054;-71
2023/09/10 01:32:46;;;;;;;13.93;8.93;;;;;;;11.34;100.00;99989.94;5099563;27;20047;-74
2023/09/10 01:35:31;;;;;;;13.75;8.60;;;;;;;11.46;100.00;99996.25;5097538;27;20042;-72
2023/09/10 01:38:01;;;;;;;15.80;8.73;;;;;;;11.49;100.00;99994.22;5105020;27;20065;-72
2023/09/10 01:40:39;;;;;;;14.65;8.57;;;;;;;11.54;100.00;99993.88;5098835;27;20535;-71
2023/09/10 01:43:06;;;;;;;18.55;8.77;;;;;;;11.51;99.78;99986.09;5098755;27;20038;-72
2023/09/10 01:45:33;;;;;;;12.32;8.40;;;;;;;11.48;99.28;99991.66;5117821;27;20472;-72
2023/09/10 01:48:00;;;;;;;16.00;8.20;;;;;;;11.45;98.89;99981.19;5099742;27;20049;-73
2023/09/10 01:50:27;;;;;;;14.88;8.32;;;;;;;11.46;98.74;99982.91;5090732;27;20038;-73
2023/09/10 01:52:52;;;;;;;14.07;8.38;;;;;;;11.47;99.42;99989.94;5112416;27;20042;-72
2023/09/10 01:55:20;;;;;;;12.05;7.65;;;;;;;11.51;99.39;99988.78;5118351;27;20551;-73
2023/09/10 01:57:46;;;;;;;14.10;7.97;;;;;;;11.56;99.28;99984.81;5100025;27;20537;-75
2023/09/10 02:00:11;;;;;;;13.73;8.45;;;;;;;11.62;98.84;99983.53;5099223;27;20042;-72
2023/09/10 02:02:39;;;;;;;10.82;7.55;;;;;;;11.69;99.42;99994.63;5099368;27;20046;-72
2023/09/10 02:05:05;;;;;;;12.77;8.23;;;;;;;11.78;99.05;99988.66;5117571;27;20049;-72
2023/09/10 02:07:30;;;;;;;20.83;7.88;;;;;;;11.85;98.21;99984.63;5117278;27;20453;-72
2023/09/10 02:09:58;;;;;;;15.13;8.73;;;;;;;11.92;97.70;99978.72;5082397;27;20054;-73
2023/09/10 02:12:23;;;;;;;11.50;8.50;;;;;;;11.97;96.93;99981.91;5116469;27;20041;-73
2023/09/10 02:14:48;;;;;;;11.90;8.45;;;;;;;12.02;97.01;99980.72;5116944;27;20043;-71
2023/09/10 02:17:14;;;;;;;12.65;8.70;;;;;;;12.08;96.56;99986.47;5098500;27;20431;-71
2023/09/10 02:19:40;;;;;;;13.93;8.98;;;;;;;12.13;95.51;99986.16;5098638;27;20502;-72
2023/09/10 02:22:05;;;;;;;16.45;9.18;;;;;;;12.16;95.64;99991.28;5080889;27;20413;-73
2023/09/10 02:24:30;;;;;;;18.13;8.98;;;;;;;12.22;94.80;99982.81;5116507;27;20039;-73
2023/09/10 02:26:55;;;;;;;15.00;8.77;;;;;;;12.26;94.37;99984.28;5117707;27;20042;-75
2023/09/10 02:29:20;;;;;;;13.68;8.23;;;;;;;12.28;94.35;99988.56;5117994;27;20042;-75
2023/09/10 02:31:46;;;;;;;14.05;8.73;;;;;;;12.28;93.21;100003.75;5098818;27;20155;-72
2023/09/10 02:34:11;;;;;;;13.88;9.27;;;;;;;12.29;93.16;99990.28;5117020;27;20058;-71
2023/09/10 02:36:36;;;;;;;12.38;8.95;;;;;;;12.32;92.68;99989.19;5084106;27;20030;-67
2023/09/10 02:39:01;;;;;;;13.93;9.75;;;;;;;12.32;91.89;99994.53;5112951;27;20050;-67
2023/09/10 02:41:27;;;;;;;14.43;9.48;;;;;;;12.33;91.94;100002.44;5111647;27;20785;-70
2023/09/10 02:43:52;;;;;;;16.75;9.60;;;;;;;12.35;91.63;99986.28;5096599;27;20187;-65
2023/09/10 02:46:17;;;;;;;16.48;9.52;;;;;;;12.37;91.42;99997.72;5097941;27;20046;-66
2023/09/10 02:48:42;;;;;;;22.08;10.73;;;;;;;12.38;90.75;99987.91;5115630;27;20050;-68
2023/09/10 02:51:08;;;;;;;14.32;9.60;;;;;;;12.38;90.58;99999.44;5114609;27;20043;-71
2023/09/10 02:53:33;;;;;;;18.10;10.32;;;;;;;12.38;91.06;99999.44;5098976;27;20051;-75
2023/09/10 02:56:02;;;;;;;16.20;9.50;;;;;;;12.40;90.24;100000.19;5091352;27;20037;-69
2023/09/10 02:58:28;;;;;;;12.88;9.20;;;;;;;12.41;90.28;99999.22;5106068;27;20039;-71
2023/09/10 03:00:54;;;;;;;15.10;10.65;;;;;;;12.43;90.62;100072.13;5074724;27;20043;-71
2023/09/10 03:03:19;;;;;;;14.65;11.02;;;;;;;12.46;90.10;99999.72;5093761;27;20046;-72
2023/09/10 03:05:48;;;;;;;15.93;11.70;;;;;;;12.50;90.45;100001.22;5094514;27;20045;-70
2023/09/10 03:08:13;;;;;;;15.05;10.43;;;;;;;12.51;90.02;100010.09;5097389;27;20061;-71
2023/09/10 03:10:39;;;;;;;15.13;10.25;;;;;;;12.54;89.71;99967.06;5115926;27;20038;-71
2023/09/10 03:13:04;;;;;;;15.50;10.88;;;;;;;12.56;89.15;99992.72;5080545;27;20046;-72
2023/09/10 03:15:29;;;;;;;14.68;10.43;;;;;;;12.55;89.48;99985.66;5115990;27;20042;-72
2023/09/10 03:17:55;;;;;;;11.93;10.10;;;;;;;12.58;89.12;99996.16;5097862;27;20065;-73
2023/09/10 03:20:20;;;;;;;18.90;10.63;;;;;;;12.58;89.08;100006.84;5117475;27;20049;-76
2023/09/10 03:22:46;;;;;;;16.25;9.75;;;;;;;12.61;89.18;100011.97;5114046;27;20058;-75
2023/09/10 03:25:11;;;;;;;12.45;9.57;;;;;;;12.64;88.65;99990.31;5116018;27;20046;-75
2023/09/10 03:27:36;;;;;;;19.42;10.48;;;;;;;12.66;88.05;99992.88;5099083;27;20042;-74
2023/09/10 03:30:05;;;;;;;17.10;10.85;;;;;;;12.68;88.42;100007.88;5098917;27;20035;-74
2023/09/10 03:32:31;;;;;;;12.95;10.63;;;;;;;12.68;87.84;99994.50;5097883;27;20046;-72
2023/09/10 03:34:56;;;;;;;14.38;9.75;;;;;;;12.68;87.95;99982.94;5078096;27;20047;-74
2023/09/10 03:37:21;;;;;;;14.20;9.80;;;;;;;12.66;87.64;99991.06;5078907;27;20050;-74
2023/09/10 03:39:46;;;;;;;15.10;10.25;;;;;;;12.66;87.36;99992.88;5081454;27;20046;-73
2023/09/10 03:42:12;;;;;;;13.20;9.90;;;;;;;12.65;87.34;100008.09;5080160;27;20058;-72
2023/09/10 03:44:37;;;;;;;12.55;9.32;;;;;;;12.66;87.27;99993.75;5115896;27;20046;-72
2023/09/10 03:47:03;;;;;;;13.73;10.95;;;;;;;12.65;87.16;100012.59;5097176;27;20078;-70
2023/09/10 03:49:29;;;;;;;16.45;11.23;;;;;;;12.67;87.36;100000.81;5097406;27;20413;-71
2023/09/10 03:51:57;;;;;;;22.27;15.60;;;;;;;12.68;86.88;100007.00;5079941;27;20078;-72
2023/09/10 03:54:22;;;;;;;14.38;10.65;;;;;;;12.68;87.33;100002.50;5115607;27;20400;-72
2023/09/10 03:56:47;;;;;;;13.52;9.15;;;;;;;12.69;87.29;100004.22;5115637;27;20062;-71
2023/09/10 03:59:12;;;;;;;12.93;9.65;;;;;;;12.69;87.17;100014.94;5097110;27;20041;-72
2023/09/10 04:01:38;;;;;;;12.32;9.50;;;;;;;12.70;86.86;100027.34;5100312;27;20050;-72
2023/09/10 04:04:04;;;;;;;14.73;10.38;;;;;;;12.71;86.59;99996.94;5101320;27;20535;-72
2023/09/10 04:06:29;;;;;;;14.38;10.60;;;;;;;12.73;86.73;100005.72;5119549;27;20049;-72
2023/09/10 04:08:55;;;;;;;12.07;9.80;;;;;;;12.75;87.18;100002.06;5097381;27;20058;-71
2023/09/10 04:11:20;;;;;;;15.43;11.23;;;;;;;12.77;86.69;100005.47;5098812;27;20051;-71
2023/09/10 04:13:45;;;;;;;15.90;10.95;;;;;;;12.80;86.64;99994.53;5097644;27;20031;-71
2023/09/10 04:16:10;;;;;;;14.93;10.20;;;;;;;12.83;86.65;100015.72;5080619;27;20062;-71
2023/09/10 04:18:36;;;;;;;14.13;10.73;;;;;;;12.86;86.55;99988.75;5097924;27;20031;-73
2023/09/10 04:21:04;;;;;;;15.18;11.15;;;;;;;12.88;86.36;100014.41;5096848;27;20489;-73
2023/09/10 04:23:30;;;;;;;13.85;9.32;;;;;;;12.91;86.18;100013.31;5097749;27;20031;-74
2023/09/10 04:25:55;;;;;;;14.88;10.57;;;;;;;12.93;86.29;99995.34;5098492;27;20113;-72
2023/09/10 04:28:20;;;;;;;14.38;10.57;;;;;;;12.95;86.46;100004.97;5098004;27;20405;-73
2023/09/10 04:30:46;;;;;;;11.73;9.77;;;;;;;12.99;85.56;100010.91;5097678;27;20058;-72
2023/09/10 04:33:11;;;;;;;15.23;11.13;;;;;;;13.04;85.99;99998.03;5079799;27;20536;-72
2023/09/10 04:35:46;;;;;;;13.93;10.43;;;;;;;13.07;85.57;100000.50;5079849;27;20050;-73
2023/09/10 04:38:11;;;;;;;14.43;10.55;;;;;;;13.13;85.14;100001.84;5097433;27;20043;-73
2023/09/10 04:40:37;;;;;;;15.70;11.45;;;;;;;13.14;84.79;100000.88;5097242;27;20042;-73
2023/09/10 04:43:03;;;;;;;13.90;10.30;;;;;;;13.12;84.51;99990.28;5096581;27;20434;-73
2023/09/10 04:45:28;;;;;;;12.15;10.13;;;;;;;13.14;83.69;99999.09;5079722;27;20046;-75
2023/09/10 04:47:53;;;;;;;14.55;10.02;;;;;;;13.14;83.98;99998.19;5097890;27;20437;-75
2023/09/10 04:50:18;;;;;;;18.65;10.10;;;;;;;13.16;83.53;100007.84;5098148;27;20046;-74
2023/09/10 04:52:44;;;;;;;16.77;11.25;;;;;;;13.21;84.34;100012.84;5099121;27;20047;-74
2023/09/10 04:55:09;;;;;;;13.82;9.85;;;;;;;13.25;83.81;100007.16;5080283;27;20047;-74
2023/09/10 04:57:34;;;;;;;16.63;10.45;;;;;;;13.31;83.47;100012.06;5097655;27;20050;-73
2023/09/10 04:59:59;;;;;;;12.60;9.75;;;;;;;13.35;83.43;100005.47;5079839;27;20066;-73
2023/09/10 05:02:25;;;;;;;12.27;10.18;;;;;;;13.39;82.69;99996.22;5097466;27;20146;-73
2023/09/10 05:04:50;;;;;;;13.05;9.73;;;;;;;13.46;82.36;100004.63;5098348;27;20156;-73
2023/09/10 05:07:15;;;;;;;14.00;9.38;;;;;;;13.50;81.76;99979.31;5100328;27;20047;-73
2023/09/10 05:09:40;;;;;;;14.43;10.13;;;;;;;13.51;81.49;100013.19;5120140;27;20034;-72
2023/09/10 05:12:06;;;;;;;12.85;9.55;;;;;;;13.58;81.14;100001.00;5101117;27;20055;-73
2023/09/10 05:14:31;;;;;;;13.73;9.82;;;;;;;13.60;81.23;99991.03;5118631;27;20413;-74
2023/09/10 05:16:56;;;;;;;12.27;9.52;;;;;;;13.64;80.59;99997.00;5100067;27;20042;-74
2023/09/10 05:19:23;;;;;;;12.32;9.15;;;;;;;13.65;80.57;100004.94;5100073;27;20039;-73
2023/09/10 05:21:49;;;;;;;12.75;9.88;;;;;;;13.71;80.60;99999.06;5099989;27;20406;-74
2023/09/10 05:24:14;;;;;;;14.27;9.98;;;;;;;13.75;79.97;100000.53;5078514;27;20532;-74
2023/09/10 05:26:39;;;;;;;15.93;9.55;;;;;;;13.78;80.03;100021.72;5078913;27;20051;-74
2023/09/10 05:29:05;;;;;;;13.02;9.55;;;;;;;13.84;79.45;100001.63;5061929;27;20055;-74
2023/09/10 05:31:32;;;;;;;16.75;11.18;;;;;;;13.91;79.51;100020.75;5097778;27;20047;-74
2023/09/10 05:33:57;;;;;;;16.10;10.25;;;;;;;13.96;79.40;99997.97;5079596;27;20424;-74
2023/09/10 05:36:22;;;;;;;12.55;9.55;;;;;;;14.03;79.09;100009.91;5097649;27;20043;-73
2023/09/10 05:38:47;;;;;;;13.70;10.93;;;;;;;14.12;78.82;99998.44;5110612;27;20043;-74
2023/09/10 05:41:13;;;;;;;13.15;10.50;;;;;;;14.19;78.67;99998.81;5100007;27;20057;-75
2023/09/10 05:43:38;;;;;;;13.38;9.95;;;;;;;14.21;78.08;100018.31;5099817;27;20043;-73
2023/09/10 05:46:03;;;;;;;15.48;10.70;;;;;;;14.29;77.99;100004.28;5082595;27;20496;-74
2023/09/10 05:48:29;;;;;;;16.55;10.23;;;;;;;14.32;77.70;99996.00;5099532;27;20410;-75
2023/09/10 05:50:58;;;;;;;13.35;9.85;;;;;;;14.34;77.46;100000.25;5099660;27;20039;-75
2023/09/10 05:53:25;;;;;;;13.52;9.88;;;;;;;14.35;77.12;100003.78;5082211;27;20508;-74
2023/09/10 05:55:50;;;;;;;14.48;10.85;;;;;;;14.34;76.64;100008.28;5099152;27;20055;-74
2023/09/10 05:58:16;;;;;;;13.05;10.00;;;;;;;14.35;76.64;100006.47;5099209;27;20039;-74
2023/09/10 06:00:42;;;;;;;14.80;9.90;;;;;;;14.35;76.42;100004.63;5099538;27;20058;-74
2023/09/10 06:03:09;;;;;;;13.02;9.30;;;;;;;14.35;76.15;100015.34;5064989;27;20046;-74
2023/09/10 06:05:35;;;;;;;12.35;9.55;;;;;;;14.34;75.99;99975.25;5099056;27;20039;-74
2023/09/10 06:08:00;;;;;;;10.95;8.82;;;;;;;14.32;75.73;100007.59;5081350;27;20413;-74
2023/09/10 06:10:26;;;;;;;12.60;9.48;;;;;;;14.35;75.72;100003.78;5099179;27;20498;-75
2023/09/10 06:12:51;;;;;;;15.43;9.52;;;;;;;14.36;75.72;100002.81;5118531;27;20045;-75
2023/09/10 06:15:16;;;;;;;13.88;9.73;;;;;;;14.35;75.46;100004.63;5065385;27;20053;-74
2023/09/10 06:17:42;;;;;;;15.02;9.27;;;;;;;14.33;75.52;100006.59;5099859;27;20042;-75
2023/09/10 06:20:08;;;;;;;14.15;9.13;;;;;;;14.32;75.41;100025.50;5099465;27;20049;-75
2023/09/10 06:22:33;;;;;;;12.38;9.13;;;;;;;14.32;75.16;100010.25;5099461;27;20035;-74
2023/09/10 06:24:58;;;;;;;14.10;9.63;;;;;;;14.34;75.09;100008.28;5099487;27;20053;-75
2023/09/10 06:27:24;;;;;;;15.27;8.82;;;;;;;14.30;75.38;100039.03;5099513;27;20409;-74
2023/09/10 06:29:50;;;;;;;12.98;9.43;;;;;;;14.32;75.39;100010.25;5077799;27;20054;-76
2023/09/10 06:32:15;;;;;;;24.48;10.20;;;;;;;14.31;75.24;100013.06;5072637;27;20050;-75
2023/09/10 06:34:40;;;;;;;15.48;9.88;;;;;;;14.31;75.60;100007.69;5081765;27;20397;-75
2023/09/10 06:37:06;;;;;;;18.05;10.55;;;;;;;14.33;75.43;100027.22;5098967;27;20035;-74
2023/09/10 06:39:38;;;;;;;14.15;10.00;;;;;;;14.33;75.72;100016.47;5078251;27;20171;-76
2023/09/10 06:42:09;;;;;;;17.40;10.70;;;;;;;14.37;75.68;100025.97;5079145;27;20039;-75
2023/09/10 06:44:42;;;;;;;;;;;;;;;14.56;76.00;100018.16;5062531;27;20051;-76
2023/09/10 06:47:07;;;;;;;15.40;9.35;;;;;;;14.47;75.67;100008.19;5078727;27;19938;-76
2023/09/10 06:49:32;;;;;;;14.63;9.27;;;;;;;14.51;74.88;100009.63;5078473;27;20409;-74
2023/09/10 06:51:57;;;;;;;13.73;9.60;;;;;;;14.53;74.87;100013.91;5097904;27;20051;-74
2023/09/10 06:54:23;;;;;;;13.60;8.68;;;;;;;14.58;74.66;100004.63;5098487;27;20046;-74
2023/09/10 06:56:48;;;;;;;13.40;9.93;;;;;;;14.62;74.55;100016.81;5098864;27;20051;-75
2023/09/10 06:59:14;;;;;;;12.02;9.00;;;;;;;14.66;74.36;100045.97;5098532;27;20042;-74
2023/09/10 07:01:39;;;;;;;13.25;8.52;;;;;;;14.73;74.09;100014.94;5117194;27;20045;-74
2023/09/10 07:04:19;;;;;;;11.95;7.93;;;;;;;14.93;73.73;100017.78;5098415;27;20057;-73
2023/09/10 07:06:45;;;;;;;11.15;8.40;;;;;;;14.95;73.00;100016.69;5098304;27;20054;-75
2023/09/10 07:09:11;;;;;;;12.13;9.18;;;;;;;15.06;73.29;100019.34;5116549;27;20050;-74
2023/09/10 07:11:36;;;;;;;13.93;9.10;;;;;;;15.14;72.58;100007.94;5097440;27;20067;-74
2023/09/10 07:14:01;;;;;;;13.00;9.52;;;;;;;15.21;72.22;100010.00;5116431;27;20039;-74
2023/09/10 07:16:28;;;;;;;11.88;8.10;;;;;;;15.31;71.80;100015.44;5116377;27;20053;-75
2023/09/10 07:18:53;;;;;;;12.38;8.32;;;;;;;15.36;70.94;100013.19;5097984;27;20046;-75
2023/09/10 07:21:18;;;;;;;13.52;8.75;;;;;;;15.39;71.11;100012.94;5100206;27;20685;-75
2023/09/10 07:23:43;;;;;;;14.25;10.13;;;;;;;15.39;70.59;100023.69;5097915;27;20505;-76
2023/09/10 07:26:09;;;;;;;13.93;8.90;;;;;;;15.41;70.26;100010.13;5098560;27;20046;-75
2023/09/10 07:28:34;;;;;;;12.38;8.40;;;;;;;15.44;69.92;100009.88;5116871;27;20488;-75
2023/09/10 07:30:59;;;;;;;10.02;7.97;;;;;;;15.49;69.75;100008.47;5116512;27;20043;-75
2023/09/10 07:33:24;;;;;;;13.55;9.65;;;;;;;15.56;69.62;100009.69;5116331;27;20049;-74
2023/09/10 07:35:50;;;;;;;12.70;9.00;;;;;;;15.66;69.93;100008.91;5110481;27;20047;-74
2023/09/10 07:38:15;;;;;;;11.00;8.93;;;;;;;15.73;69.12;100010.91;5097771;27;20045;-75
2023/09/10 07:40:40;;;;;;;12.43;8.63;;;;;;;15.84;69.02;100007.28;5116057;27;20042;-74
2023/09/10 07:43:05;;;;;;;12.18;8.43;;;;;;;15.96;68.42;100011.59;5116235;27;20047;-74
2023/09/10 07:45:30;;;;;;;11.82;8.25;;;;;;;16.13;68.07;100023.56;5097767;27;20042;-72
2023/09/10 07:47:56;;;;;;;11.60;8.63;;;;;;;16.37;67.48;100021.34;5115794;27;20054;-72
2023/09/10 07:50:22;;;;;;;12.88;8.73;;;;;;;16.65;66.58;100009.00;5097320;27;20042;-73
2023/09/10 07:52:47;;;;;;;11.48;9.18;;;;;;;16.92;65.67;100006.47;5096365;27;20142;-71
2023/09/10 07:55:13;;;;;;;13.00;8.73;;;;;;;17.11;64.91;100026.31;5097190;27;20050;-72
2023/09/10 07:57:39;;;;;;;10.55;8.55;;;;;;;17.30;64.43;99999.34;5115454;27;20062;-71
2023/09/10 08:00:06;;;;;;;14.23;8.73;;;;;;;17.59;63.53;100020.88;5115529;27;20520;-73
2023/09/10 08:02:37;;;;;;;10.38;8.60;;;;;;;18.31;62.07;99995.94;5115622;27;20046;-71
2023/09/10 08:05:02;;;;;;;9.70;7.40;;;;;;;18.73;60.03;99990.88;5115466;27;20043;-71
2023/09/10 08:07:28;;;;;;;10.88;7.78;;;;;;;18.75;59.18;100000.50;5115196;27;20840;-71
2023/09/10 08:09:53;;;;;;;17.20;7.85;;;;;;;18.60;59.13;99991.25;5096668;27;20050;-71
2023/09/10 08:12:18;;;;;;;10.63;7.78;;;;;;;18.40;59.12;99984.22;5096244;27;20051;-72
2023/09/10 08:14:43;;;;;;;14.65;7.90;;;;;;;18.29;59.04;99990.69;5096766;27;20065;-72
2023/09/10 08:17:09;;;;;;;10.63;7.50;;;;;;;18.17;59.37;99997.31;5115389;27;20038;-71
2023/09/10 08:19:34;;;;;;;13.57;7.60;;;;;;;18.19;59.46;99997.13;5115216;27;20047;-72
2023/09/10 08:21:59;;;;;;;9.32;7.35;;;;;;;18.45;58.97;99987.34;5115227;27;20038;-72
2023/09/10 08:24:24;;;;;;;9.27;6.60;;;;;;;18.63;58.29;100017.94;5115314;27;20053;-72
2023/09/10 08:26:51;;;;;;;9.07;7.45;;;;;;;18.76;57.66;100022.97;5096823;27;20409;-71
2023/09/10 08:29:17;;;;;;;9.00;7.18;;;;;;;19.01;57.19;99983.53;5078476;27;20504;-72
2023/09/10 08:31:42;;;;;;;10.07;8.18;;;;;;;19.13;56.37;99983.16;5115180;27;20035;-70
2023/09/10 08:34:07;;;;;;;8.43;7.03;;;;;;;19.42;55.76;99972.03;5115322;27;20050;-71
2023/09/10 08:36:32;;;;;;;9.63;6.55;;;;;;;20.30;54.67;99968.19;5115327;27;20034;-71
2023/09/10 08:38:57;;;;;;;11.00;7.10;;;;;;;21.02;52.29;99968.50;5115055;27;20412;-73
2023/09/10 08:41:32;;;;;;;13.13;7.75;;;;;;;21.19;50.80;99969.41;5115001;27;20035;-70
2023/09/10 08:43:58;;;;;;;10.80;8.02;;;;;;;20.97;50.54;99971.75;5115283;27;20057;-72
2023/09/10 08:46:30;;;;;;;11.27;8.48;;;;;;;20.75;51.17;99956.13;5115079;27;20758;-72
2023/09/10 08:48:56;;;;;;;11.27;8.18;;;;;;;20.96;50.83;99964.63;5118135;27;20042;-71
2023/09/10 08:51:22;;;;;;;8.73;6.90;;;;;;;21.26;50.30;99976.69;5118298;27;20042;-71
2023/09/10 08:53:47;;;;;;;13.57;7.88;;;;;;;21.87;49.28;99958.09;5095955;27;20051;-73
2023/09/10 08:56:14;;;;;;;10.25;7.72;;;;;;;22.90;47.49;99972.41;5115488;27;20037;-70
2023/09/10 08:58:42;;;;;;;10.25;7.20;;;;;;;23.87;45.56;99960.66;5118697;27;20042;-72
2023/09/10 09:01:08;;;;;;;8.88;7.45;;;;;;;24.49;44.27;99950.19;5100775;27;20065;-74
2023/09/10 09:03:35;;;;;;;11.35;8.18;;;;;;;25.11;43.63;99944.16;5118731;27;20045;-73
2023/09/10 09:06:04;;;;;;;12.57;7.65;;;;;;;25.83;42.29;99970.38;5118471;27;20516;-75
2023/09/10 09:08:32;;;;;;;10.38;7.75;;;;;;;26.15;41.36;99941.56;5118390;27;20046;-73
2023/09/10 09:11:06;;;;;;;11.25;7.53;;;;;;;26.71;39.47;99931.28;5118198;27;20046;-73
2023/09/10 09:13:40;;;;;;;11.70;8.45;;;;;;;27.57;38.08;99945.91;5118541;27;20046;-75
2023/09/10 09:16:06;;;;;;;10.15;7.75;;;;;;;28.02;37.16;99957.00;5118778;27;20053;-73
2023/09/10 09:18:35;;;;;;;10.43;8.18;;;;;;;28.31;35.86;99933.75;5118112;27;20043;-73
2023/09/10 09:21:06;;;;;;;9.35;8.32;;;;;;;28.50;35.80;99941.88;5118529;27;20050;-71
2023/09/10 09:23:35;;;;;;;8.48;7.22;;;;;;;28.47;35.87;99939.56;5118225;27;20497;-72
2023/09/10 09:26:01;;;;;;;9.13;7.65;;;;;;;28.85;34.91;99930.53;5118290;27;20050;-73
2023/09/10 09:28:29;;;;;;;8.90;7.95;;;;;;;29.68;33.88;99900.94;5118116;27;20061;-74
2023/09/10 09:30:54;;;;;;;12.00;7.60;;;;;;;31.00;31.60;99915.75;5118360;27;20039;-73
2023/09/10 09:33:19;;;;;;;9.75;7.30;;;;;;;32.16;29.64;99928.78;5098790;27;20505;-74
2023/09/10 09:35:46;;;;;;;9.13;7.82;;;;;;;32.51;28.63;99936.94;5098835;27;20523;-75
2023/09/10 09:38:13;;;;;;;10.80;7.60;;;;;;;32.61;28.21;99923.38;5118114;27;20035;-76
2023/09/10 09:40:39;;;;;;;11.00;7.90;;;;;;;32.96;27.63;99914.13;5117988;27;20051;-70
2023/09/10 09:43:09;;;;;;;8.27;6.88;;;;;;;33.04;27.61;99920.06;5118100;27;20031;-72
2023/09/10 09:45:39;;;;;;;8.70;7.03;;;;;;;32.16;28.27;99916.91;5117943;27;20107;-72
2023/09/10 09:48:05;;;;;;;9.80;7.80;;;;;;;30.99;29.59;99911.31;5117502;27;20043;-72
2023/09/10 09:50:31;;;;;;;8.70;6.82;;;;;;;29.88;31.10;99907.03;5117531;27;20042;-71
2023/09/10 09:52:57;;;;;;;7.80;7.00;;;;;;;28.97;31.97;99903.22;5117482;27;20497;-71
2023/09/10 09:55:22;;;;;;;13.18;7.68;;;;;;;28.17;33.47;99908.25;5117681;27;20396;-73
2023/09/10 09:57:49;;;;;;;7.90;7.07;;;;;;;27.58;34.07;99912.00;5098761;27;20527;-73
2023/09/10 10:00:15;;;;;;;8.07;7.25;;;;;;;26.96;34.88;99902.31;5117547;27;20049;-71
2023/09/10 10:02:41;;;;;;;16.00;7.97;;;;;;;26.39;35.73;99932.88;5117770;27;20039;-72
2023/09/10 10:05:10;;;;;;;11.15;7.88;;;;;;;26.02;36.81;99920.47;5117347;27;20042;-72
2023/09/10 10:07:36;;;;;;;9.05;7.82;;;;;;;25.77;36.92;99917.38;5113241;27;20042;-71
2023/09/10 10:10:06;;;;;;;8.63;7.10;;;;;;;26.04;36.80;99894.66;5067819;27;20132;-72
2023/09/10 10:12:32;;;;;;;9.95;8.32;;;;;;;25.79;37.26;99919.94;5096721;27;20035;-73
2023/09/10 10:14:58;;;;;;;10.00;7.53;;;;;;;25.20;37.89;99887.56;5116837;27;20046;-72
2023/09/10 10:17:26;;;;;;;10.43;7.13;;;;;;;24.52;38.82;99916.25;5098132;27;20412;-74
2023/09/10 10:19:51;;;;;;;9.27;7.72;;;;;;;23.94;39.87;99918.00;5098259;27;20507;-74
2023/09/10 10:22:17;;;;;;;13.63;7.80;;;;;;;23.44;40.94;99892.38;5116483;27;20034;-72
2023/09/10 10:24:44;;;;;;;12.25;8.23;;;;;;;22.98;42.12;99891.63;5098184;27;20045;-72
2023/09/10 10:27:10;;;;;;;10.73;7.80;;;;;;;22.58;43.14;99903.59;5116442;27;20030;-73
2023/09/10 10:29:50;;;;;;;9.45;7.88;;;;;;;22.21;43.84;99889.94;5116479;27;20493;-73
2023/09/10 10:32:32;;;;;;;12.73;7.65;;;;;;;22.08;44.50;99885.09;5061236;27;20051;-76
2023/09/10 10:35:02;;;;;;;8.27;6.85;;;;;;;21.60;44.75;99895.06;5098773;27;20409;-76
2023/09/10 10:37:46;;;;;;;9.45;7.63;;;;;;;21.42;45.75;99880.03;5117183;27;20043;-75
2023/09/10 10:40:24;;;;;;;8.75;7.13;;;;;;;20.93;46.36;99877.38;5117073;27;20038;-77
2023/09/10 10:42:56;;;;;;;11.13;7.47;;;;;;;20.71;46.89;99878.03;5116924;27;20030;-76
2023/09/10 10:45:24;;;;;;;12.50;8.18;;;;;;;20.42;47.55;99894.78;5095507;27;20053;-75
2023/09/10 10:47:50;;;;;;;11.10;7.75;;;;;;;20.22;47.98;99883.34;5117366;27;20034;-76
2023/09/10 10:50:25;;;;;;;7.95;6.65;;;;;;;20.11;48.62;99892.63;5115867;27;20047;-76
2023/09/10 10:53:09;;;;;;;13.73;7.75;;;;;;;20.03;48.80;99870.09;5117462;27;20038;-75
2023/09/10 10:55:35;;;;;;;;;;;;;;;20.12;47.71;99874.53;5117689;27;20043;-75
2023/09/10 10:58:01;;;;;;;13.45;6.90;;;;;;;19.65;48.96;99861.50;5113290;27;20415;-74
2023/09/10 11:00:27;;;;;;;10.15;7.03;;;;;;;19.47;49.88;99860.72;5116112;27;20159;-74
2023/09/10 11:03:15;;;;;;;12.70;8.32;;;;;;;19.46;50.04;99865.28;5116424;27;20038;-73
2023/09/10 11:06:04;;;;;;;9.82;7.70;;;;;;;19.30;50.97;99859.75;5116433;27;20057;-74
2023/09/10 11:08:40;;;;;;;13.50;7.20;;;;;;;19.13;51.25;99864.25;5114710;27;20425;-72
2023/09/10 11:11:33;;;;;;;10.27;7.57;;;;;;;19.19;51.68;99855.47;5115407;27;20053;-73
2023/09/10 11:14:08;;;;;;;10.38;7.00;;;;;;;19.08;51.99;99855.75;5115975;27;20051;-74
2023/09/10 11:16:42;;;;;;;;;;;;;;;19.20;50.87;99857.19;5098404;27;20404;-73
2023/09/10 11:19:44;;;;;;;10.50;7.30;;;;;;;19.08;52.02;99849.50;5114366;27;20304;-76
2023/09/10 11:22:09;;;;;;;10.68;7.40;;;;;;;18.93;52.36;99843.84;5113507;27;20043;-78